createdAt,value
2023-05-16T00:00:11.258Z,7.20
2023-05-16T00:02:38.338Z,7.90
2023-05-16T00:05:06.932Z,8.27
2023-05-16T00:07:34.874Z,8.40
2023-05-16T00:10:01.800Z,8.10
2023-05-16T00:12:28.758Z,8.40
2023-05-16T00:14:55.584Z,7.87
2023-05-16T00:17:22.499Z,8.30
2023-05-16T00:19:49.401Z,8.63
2023-05-16T00:22:16.189Z,7.57
2023-05-16T00:24:43.110Z,8.93
2023-05-16T00:27:09.988Z,8.83
2023-05-16T00:29:36.971Z,8.40
2023-05-16T00:32:04.063Z,9.00
2023-05-16T00:34:30.975Z,8.77
2023-05-16T00:36:57.798Z,8.00
2023-05-16T00:39:24.568Z,8.70
2023-05-16T00:41:51.710Z,8.87
2023-05-16T00:44:18.832Z,8.10
2023-05-16T00:46:45.779Z,9.10
2023-05-16T00:49:12.743Z,8.57
2023-05-16T00:51:39.860Z,8.40
2023-05-16T00:54:07.492Z,8.57
2023-05-16T00:56:34.601Z,7.17
2023-05-16T00:59:02.241Z,8.33
2023-05-16T01:01:29.526Z,7.73
2023-05-16T01:03:56.626Z,7.57
2023-05-16T01:06:23.600Z,8.60
2023-05-16T01:08:50.434Z,7.57
2023-05-16T01:11:36.435Z,7.80
2023-05-16T01:14:54.034Z,7.30
2023-05-16T01:17:44.243Z,8.43
2023-05-16T01:20:46.370Z,8.40
2023-05-16T01:23:21.923Z,8.23
2023-05-16T01:26:21.075Z,8.33
2023-05-16T01:28:50.909Z,6.97
2023-05-16T01:31:19.252Z,7.90
2023-05-16T01:33:46.692Z,7.20
2023-05-16T01:36:46.548Z,7.50
2023-05-16T01:39:53.013Z,7.63
2023-05-16T01:42:24.985Z,7.77
2023-05-16T01:45:09.774Z,8.00
2023-05-16T01:47:42.280Z,7.87
2023-05-16T01:50:21.351Z,9.10
2023-05-16T01:52:48.111Z,8.70
2023-05-16T01:55:39.872Z,7.30
2023-05-16T01:58:08.574Z,8.37
2023-05-16T02:00:35.537Z,8.30
2023-05-16T02:03:02.618Z,8.07
2023-05-16T02:05:29.636Z,8.70
2023-05-16T02:07:59.616Z,8.13
2023-05-16T02:10:27.469Z,8.97
2023-05-16T02:12:54.426Z,8.13
2023-05-16T02:15:21.212Z,8.20
2023-05-16T02:17:48.127Z,8.13
2023-05-16T02:20:15.179Z,8.70
2023-05-16T02:22:42.038Z,8.73
2023-05-16T02:25:10.061Z,8.63
2023-05-16T02:27:36.897Z,8.83
2023-05-16T02:30:04.147Z,9.20
2023-05-16T02:32:32.453Z,8.07
2023-05-16T02:34:59.464Z,8.30
2023-05-16T02:37:26.266Z,8.60
2023-05-16T02:39:53.134Z,8.47
2023-05-16T02:42:19.963Z,7.90
2023-05-16T02:44:46.837Z,7.90
2023-05-16T02:47:13.719Z,8.50
2023-05-16T02:49:40.606Z,8.00
2023-05-16T02:52:07.368Z,9.70
2023-05-16T02:54:34.149Z,8.53
2023-05-16T02:57:01.047Z,8.60
2023-05-16T02:59:27.861Z,8.63
2023-05-16T03:01:54.689Z,9.87
2023-05-16T03:04:21.533Z,9.47
2023-05-16T03:06:48.441Z,9.57
2023-05-16T03:09:15.309Z,9.30
2023-05-16T03:11:42.144Z,9.33
2023-05-16T03:14:09.036Z,9.03
2023-05-16T03:16:35.833Z,8.60
2023-05-16T03:19:02.945Z,9.00
2023-05-16T03:21:29.746Z,8.70
2023-05-16T03:23:56.894Z,9.10
2023-05-16T03:26:27.410Z,9.67
2023-05-16T03:28:54.219Z,9.23
2023-05-16T03:31:22.482Z,9.90
2023-05-16T03:33:49.387Z,8.87
2023-05-16T03:36:16.242Z,10.17
2023-05-16T03:38:43.149Z,10.17
2023-05-16T03:41:09.995Z,9.83
2023-05-16T03:43:36.876Z,9.70
2023-05-16T03:46:03.830Z,10.00
2023-05-16T03:48:30.674Z,10.17
2023-05-16T03:50:57.568Z,8.83
2023-05-16T03:53:24.433Z,9.10
2023-05-16T03:55:51.279Z,8.60
2023-05-16T03:58:18.133Z,9.63
2023-05-16T04:00:44.988Z,9.90
2023-05-16T04:03:11.921Z,9.30
2023-05-16T04:05:38.988Z,9.83
2023-05-16T04:08:05.917Z,11.20
2023-05-16T04:10:32.777Z,9.80
2023-05-16T04:12:59.636Z,10.10
2023-05-16T04:15:26.696Z,10.83
2023-05-16T04:17:53.716Z,10.13
2023-05-16T04:20:20.718Z,10.00
2023-05-16T04:22:47.750Z,10.47
2023-05-16T04:25:14.652Z,11.37
2023-05-16T04:27:41.496Z,11.67
2023-05-16T04:30:09.759Z,10.33
2023-05-16T04:32:36.685Z,10.77
2023-05-16T04:35:04.018Z,10.70
2023-05-16T04:37:30.838Z,9.97
2023-05-16T04:39:57.621Z,10.73
2023-05-16T04:42:24.428Z,12.43
2023-05-16T04:44:51.221Z,12.30
2023-05-16T04:47:18.136Z,13.13
2023-05-16T04:49:44.998Z,12.90
2023-05-16T04:52:11.834Z,12.43
2023-05-16T04:54:39.524Z,11.30
2023-05-16T04:57:06.369Z,11.80
2023-05-16T04:59:33.250Z,13.67
2023-05-16T05:02:00.147Z,12.90
2023-05-16T05:04:27.226Z,12.70
2023-05-16T05:06:54.206Z,13.37
2023-05-16T05:09:21.038Z,11.50
2023-05-16T05:11:47.875Z,14.37
2023-05-16T05:14:14.749Z,13.20
2023-05-16T05:16:41.522Z,12.73
2023-05-16T05:19:08.491Z,13.53
2023-05-16T05:21:35.474Z,14.10
2023-05-16T05:24:02.385Z,13.63
2023-05-16T05:26:29.285Z,14.47
2023-05-16T05:29:04.471Z,12.97
2023-05-16T05:31:32.541Z,11.60
2023-05-16T05:33:59.680Z,12.60
2023-05-16T05:36:26.593Z,12.80
2023-05-16T05:38:53.516Z,11.90
2023-05-16T05:41:20.339Z,12.23
2023-05-16T05:43:47.174Z,10.80
2023-05-16T05:46:14.090Z,11.00
2023-05-16T05:48:41.144Z,11.07
2023-05-16T05:51:08.000Z,11.23
2023-05-16T05:53:35.266Z,10.07
2023-05-16T05:56:02.059Z,10.00
2023-05-16T05:58:29.113Z,9.80
2023-05-16T06:00:55.951Z,10.77
2023-05-16T06:03:22.853Z,9.73
2023-05-16T06:05:49.841Z,9.63
2023-05-16T06:08:16.795Z,11.30
2023-05-16T06:10:43.634Z,9.97
2023-05-16T06:13:10.637Z,9.27
2023-05-16T06:15:37.561Z,8.40
2023-05-16T06:18:04.810Z,9.50
2023-05-16T06:20:31.757Z,8.83
2023-05-16T06:22:59.022Z,8.70
2023-05-16T06:25:26.085Z,8.87
2023-05-16T06:27:53.256Z,10.27
2023-05-16T06:30:20.099Z,9.70
2023-05-16T06:32:46.996Z,8.90
2023-05-16T06:35:13.842Z,8.57
2023-05-16T06:37:42.068Z,8.80
2023-05-16T06:40:10.685Z,7.80
2023-05-16T06:42:37.850Z,9.03
2023-05-16T06:45:05.992Z,8.33
2023-05-16T06:47:32.936Z,8.43
2023-05-16T06:49:59.966Z,8.80
2023-05-16T06:52:26.797Z,8.47
2023-05-16T06:54:53.760Z,9.77
2023-05-16T06:57:20.647Z,8.40
2023-05-16T06:59:47.615Z,8.30
2023-05-16T07:02:14.491Z,8.80
2023-05-16T07:04:41.383Z,8.13
2023-05-16T07:07:10.021Z,8.93
2023-05-16T07:09:37.134Z,9.07
2023-05-16T07:12:04.913Z,6.87
2023-05-16T07:14:31.797Z,8.37
2023-05-16T07:16:58.823Z,8.70
2023-05-16T07:19:25.984Z,7.97
2023-05-16T07:21:53.257Z,8.07
2023-05-16T07:24:20.233Z,6.97
2023-05-16T07:26:47.029Z,7.57
2023-05-16T07:29:13.925Z,7.53
2023-05-16T07:31:40.916Z,6.70
2023-05-16T07:34:07.849Z,7.00
2023-05-16T07:36:35.064Z,7.40
2023-05-16T07:39:02.333Z,7.83
2023-05-16T07:41:30.899Z,7.77
2023-05-16T07:43:57.723Z,7.60
2023-05-16T07:46:24.749Z,7.70
2023-05-16T07:48:52.224Z,8.00
2023-05-16T07:51:19.148Z,8.00
2023-05-16T07:53:46.040Z,7.70
2023-05-16T07:56:13.056Z,7.93
2023-05-16T07:58:40.060Z,7.70
2023-05-16T08:01:06.939Z,8.57
2023-05-16T08:03:34.042Z,8.57
2023-05-16T08:06:01.065Z,7.37
2023-05-16T08:08:27.989Z,8.07
2023-05-16T08:10:54.877Z,8.57
2023-05-16T08:13:21.904Z,8.27
2023-05-16T08:15:49.077Z,7.80
2023-05-16T08:18:16.480Z,8.77
2023-05-16T08:20:43.928Z,9.30
2023-05-16T08:23:10.799Z,8.60
2023-05-16T08:25:37.876Z,9.10
2023-05-16T08:28:04.821Z,8.87
2023-05-16T08:30:31.667Z,8.70
2023-05-16T08:32:58.511Z,8.93
2023-05-16T08:35:26.018Z,9.00
2023-05-16T08:37:53.172Z,8.67
2023-05-16T08:40:21.022Z,10.10
2023-05-16T08:42:47.988Z,9.87
2023-05-16T08:45:14.980Z,8.17
2023-05-16T08:47:44.415Z,8.50
2023-05-16T08:50:12.493Z,7.60
2023-05-16T08:52:42.142Z,8.33
2023-05-16T08:55:11.715Z,9.33
2023-05-16T08:57:40.285Z,9.03
2023-05-16T09:00:09.137Z,9.20
2023-05-16T09:02:36.212Z,8.80
2023-05-16T09:05:04.921Z,9.40
2023-05-16T09:07:31.905Z,9.70
2023-05-16T09:09:58.830Z,9.40
2023-05-16T09:12:25.923Z,9.00
2023-05-16T09:14:52.804Z,9.63
2023-05-16T09:17:28.507Z,9.20
2023-05-16T09:20:12.258Z,9.50
2023-05-16T09:22:40.685Z,10.00
2023-05-16T09:25:15.356Z,10.57
2023-05-16T09:27:56.019Z,9.83
2023-05-16T09:30:28.751Z,8.60
2023-05-16T09:32:55.791Z,9.50
2023-05-16T09:35:39.569Z,9.60
2023-05-16T09:38:18.166Z,10.30
2023-05-16T09:40:46.304Z,9.73
2023-05-16T09:43:17.584Z,9.67
2023-05-16T09:45:49.316Z,9.20
2023-05-16T09:48:17.354Z,9.70
2023-05-16T09:50:53.245Z,10.47
2023-05-16T09:53:34.235Z,9.70
2023-05-16T09:56:07.666Z,10.37
2023-05-16T09:58:38.025Z,9.20
2023-05-16T10:01:06.588Z,9.90
2023-05-16T10:03:37.580Z,10.70
2023-05-16T10:06:06.466Z,9.87
2023-05-16T10:08:35.437Z,9.80
2023-05-16T10:11:04.993Z,10.70
2023-05-16T10:13:34.914Z,11.20
2023-05-16T10:16:08.954Z,10.63
2023-05-16T10:18:38.658Z,9.00
2023-05-16T10:21:11.831Z,9.20
2023-05-16T10:23:43.888Z,9.77
2023-05-16T10:26:12.502Z,10.50
2023-05-16T10:28:40.995Z,10.50
2023-05-16T10:31:09.604Z,9.83
2023-05-16T10:33:36.973Z,10.80
2023-05-16T10:36:04.478Z,9.40
2023-05-16T10:38:32.662Z,10.23
2023-05-16T10:41:00.675Z,11.00
2023-05-16T10:43:30.355Z,11.20
2023-05-16T10:46:05.550Z,13.40
2023-05-16T10:48:35.848Z,12.30
2023-05-16T10:51:04.876Z,10.13
2023-05-16T10:53:36.495Z,23.90
2023-05-16T10:56:03.363Z,18.00
2023-05-16T10:58:39.294Z,25.30
2023-05-16T11:01:35.555Z,19.60
2023-05-16T11:04:08.944Z,11.80
2023-05-16T11:06:52.335Z,12.00
2023-05-16T11:09:28.432Z,11.27
2023-05-16T11:12:01.462Z,12.43
2023-05-16T11:14:34.504Z,11.57
2023-05-16T11:17:22.441Z,15.87
2023-05-16T11:19:57.395Z,15.70
2023-05-16T11:22:27.308Z,12.10
2023-05-16T11:25:02.385Z,13.30
2023-05-16T11:27:37.302Z,15.13
2023-05-16T11:30:07.255Z,14.90
2023-05-16T11:32:36.551Z,23.97
2023-05-16T11:35:05.697Z,18.83
2023-05-16T11:37:32.694Z,16.90
2023-05-16T11:40:07.850Z,16.47
2023-05-16T11:42:38.639Z,17.30
2023-05-16T11:45:10.216Z,16.30
2023-05-16T11:47:39.067Z,16.27
2023-05-16T11:50:23.470Z,16.37
2023-05-16T11:52:53.883Z,16.80
2023-05-16T11:55:40.576Z,17.37
2023-05-16T11:58:09.531Z,17.23
2023-05-16T12:00:36.743Z,15.77
2023-05-16T12:03:05.755Z,17.97
2023-05-16T12:05:34.708Z,16.20
2023-05-16T12:08:03.089Z,18.23
2023-05-16T12:10:32.575Z,17.83
2023-05-16T12:12:59.531Z,17.00
2023-05-16T12:15:26.975Z,17.57
2023-05-16T12:17:54.262Z,18.80
2023-05-16T12:20:21.216Z,17.80
2023-05-16T12:22:48.170Z,21.83
2023-05-16T12:25:35.262Z,18.03
2023-05-16T12:28:04.666Z,15.70
2023-05-16T12:30:33.155Z,13.60
2023-05-16T12:33:09.207Z,13.20
2023-05-16T12:35:41.207Z,14.63
2023-05-16T12:38:13.174Z,13.43
2023-05-16T12:40:43.177Z,13.83
2023-05-16T12:43:23.763Z,15.00
2023-05-16T12:45:57.013Z,15.57
2023-05-16T12:48:32.759Z,14.97
2023-05-16T12:51:17.461Z,13.60
2023-05-16T12:53:51.438Z,13.10
2023-05-16T12:56:24.981Z,14.30
2023-05-16T12:58:51.879Z,14.70
2023-05-16T13:01:18.778Z,11.83
2023-05-16T13:03:45.709Z,11.90
2023-05-16T13:06:12.717Z,11.40
2023-05-16T13:08:39.645Z,11.63
2023-05-16T13:11:06.548Z,11.20
2023-05-16T13:13:36.470Z,11.07
2023-05-16T13:16:04.265Z,11.00
2023-05-16T13:18:31.319Z,12.03
2023-05-16T13:20:58.605Z,12.10
2023-05-16T13:23:25.565Z,10.00
2023-05-16T13:25:52.487Z,11.03
2023-05-16T13:28:19.378Z,11.80
2023-05-16T13:30:46.280Z,11.40
2023-05-16T13:33:13.702Z,11.07
2023-05-16T13:35:40.716Z,11.03
2023-05-16T13:38:07.638Z,10.87
2023-05-16T13:40:34.599Z,10.60
2023-05-16T13:43:01.456Z,10.80
2023-05-16T13:45:29.716Z,10.50
2023-05-16T13:47:56.926Z,11.50
2023-05-16T13:50:23.855Z,10.20
2023-05-16T13:52:50.696Z,9.97
2023-05-16T13:55:18.024Z,10.37
2023-05-16T13:57:44.977Z,11.40
2023-05-16T14:02:43.531Z,12.03
2023-05-16T14:05:10.972Z,12.10
2023-05-16T14:07:37.952Z,11.90
2023-05-16T14:10:05.750Z,12.30
2023-05-16T14:12:32.662Z,12.63
2023-05-16T14:14:59.553Z,14.07
2023-05-16T14:17:26.593Z,13.43
2023-05-16T14:19:53.561Z,13.27
2023-05-16T14:22:20.474Z,13.27
2023-05-16T14:24:47.875Z,11.83
2023-05-16T14:27:14.780Z,12.07
2023-05-16T14:29:41.700Z,10.17
2023-05-16T14:32:10.821Z,11.90
2023-05-16T14:34:38.076Z,11.87
2023-05-16T14:37:05.394Z,12.93
2023-05-16T14:39:32.384Z,13.40
2023-05-16T14:41:59.300Z,13.47
2023-05-16T14:44:26.157Z,13.83
2023-05-16T14:46:53.067Z,13.40
2023-05-16T14:49:20.015Z,12.70
2023-05-16T14:51:46.920Z,13.73
2023-05-16T14:54:13.845Z,13.97
2023-05-16T14:56:40.669Z,16.07
2023-05-16T14:59:07.618Z,13.27
2023-05-16T15:01:34.496Z,15.17
2023-05-16T15:04:01.470Z,16.30
2023-05-16T15:06:28.453Z,14.50
2023-05-16T15:08:55.361Z,14.80
2023-05-16T15:11:22.252Z,15.00
2023-05-16T15:13:49.297Z,16.13
2023-05-16T15:16:16.395Z,15.83
2023-05-16T15:18:43.413Z,16.73
2023-05-16T15:21:10.386Z,18.53
2023-05-16T15:23:37.289Z,17.47
2023-05-16T15:26:04.902Z,18.67
2023-05-16T15:28:31.937Z,18.43
2023-05-16T15:30:58.863Z,18.50
2023-05-16T15:33:25.789Z,17.40
2023-05-16T15:35:52.699Z,15.80
2023-05-16T15:38:19.605Z,16.90
2023-05-16T15:40:47.069Z,17.50
2023-05-16T15:43:16.037Z,18.03
2023-05-16T15:45:44.604Z,19.20
2023-05-16T15:48:11.927Z,18.27
2023-05-16T15:50:38.902Z,14.67
2023-05-16T15:53:05.773Z,14.00
2023-05-16T15:55:32.657Z,13.20
2023-05-16T15:57:59.569Z,12.03
2023-05-16T16:00:26.643Z,12.77
2023-05-16T16:02:53.737Z,12.23
2023-05-16T16:05:20.791Z,13.60
2023-05-16T16:07:47.730Z,13.67
2023-05-16T16:10:14.756Z,12.07
2023-05-16T16:12:41.801Z,11.60
2023-05-16T16:15:10.872Z,11.70
2023-05-16T16:17:38.038Z,12.83
2023-05-16T16:20:05.852Z,12.03
2023-05-16T16:22:32.776Z,12.70
2023-05-16T16:24:59.614Z,13.73
2023-05-16T16:27:26.552Z,13.40
2023-05-16T16:29:53.537Z,13.67
2023-05-16T16:32:20.444Z,14.73
2023-05-16T16:34:47.498Z,16.13
2023-05-16T16:37:14.369Z,16.90
2023-05-16T16:39:41.547Z,16.90
2023-05-16T16:42:08.636Z,15.90
2023-05-16T16:44:35.530Z,17.70
2023-05-16T16:47:02.668Z,17.63
2023-05-16T16:49:29.913Z,18.53
2023-05-16T16:51:57.225Z,20.27
2023-05-16T16:54:24.453Z,20.67
2023-05-16T16:56:51.893Z,19.73
2023-05-16T16:59:18.823Z,20.10
2023-05-16T17:01:45.952Z,20.80
2023-05-16T17:04:13.121Z,20.67
2023-05-16T17:06:40.028Z,19.70
2023-05-16T17:09:07.043Z,21.50
2023-05-16T17:11:33.997Z,21.90
2023-05-16T17:14:00.936Z,22.70
2023-05-16T17:16:28.128Z,23.10
2023-05-16T17:18:56.037Z,21.53
2023-05-16T17:21:22.899Z,22.97
2023-05-16T17:23:49.780Z,21.93
2023-05-16T17:26:18.002Z,21.90
2023-05-16T17:28:46.042Z,21.03
2023-05-16T17:31:13.117Z,21.13
2023-05-16T17:33:40.053Z,21.50
2023-05-16T17:36:08.030Z,19.77
2023-05-16T17:38:34.994Z,19.73
2023-05-16T17:41:02.740Z,20.63
2023-05-16T17:43:31.138Z,21.73
2023-05-16T17:45:58.171Z,21.33
2023-05-16T17:48:25.054Z,22.90
2023-05-16T17:50:51.938Z,22.07
2023-05-16T17:53:19.035Z,21.33
2023-05-16T17:55:45.923Z,19.47
2023-05-16T17:58:12.972Z,19.53
2023-05-16T18:00:39.909Z,18.37
2023-05-16T18:03:10.394Z,19.93
2023-05-16T18:05:37.509Z,19.10
2023-05-16T18:08:06.528Z,18.90
2023-05-16T18:10:50.399Z,18.83
2023-05-16T18:13:18.519Z,20.20
2023-05-16T18:15:45.461Z,19.83
2023-05-16T18:18:12.624Z,20.70
2023-05-16T18:20:39.643Z,21.50
2023-05-16T18:23:06.533Z,20.80
2023-05-16T18:25:33.557Z,21.53
2023-05-16T18:28:00.415Z,19.13
2023-05-16T18:30:27.363Z,19.20
2023-05-16T18:32:57.019Z,18.37
2023-05-16T18:35:23.942Z,19.57
2023-05-16T18:37:50.920Z,20.43
2023-05-16T18:40:18.105Z,18.63
2023-05-16T18:42:45.070Z,19.30
2023-05-16T18:45:12.011Z,18.77
2023-05-16T18:47:39.080Z,22.40
2023-05-16T18:50:07.209Z,19.77
2023-05-16T18:52:34.198Z,18.17
2023-05-16T18:55:01.343Z,20.20
2023-05-16T18:57:28.219Z,37.03
2023-05-16T18:59:55.024Z,53.27
2023-05-16T19:02:30.354Z,31.07
2023-05-16T19:05:09.134Z,27.30
2023-05-16T19:07:36.199Z,25.97
2023-05-16T19:10:04.123Z,21.03
2023-05-16T19:12:31.807Z,18.53
2023-05-16T19:14:58.800Z,19.90
2023-05-16T19:17:26.370Z,19.87
2023-05-16T19:19:53.515Z,19.37
2023-05-16T19:22:20.696Z,21.47
2023-05-16T19:24:47.674Z,18.90
2023-05-16T19:27:15.140Z,20.70
2023-05-16T19:29:41.983Z,21.93
2023-05-16T19:32:08.937Z,22.30
2023-05-16T19:34:36.528Z,24.20
2023-05-16T19:37:03.571Z,22.93
2023-05-16T19:39:32.926Z,23.23
2023-05-16T19:42:06.956Z,23.07
2023-05-16T19:44:39.933Z,23.93
2023-05-16T19:47:07.194Z,20.70
2023-05-16T19:49:34.255Z,23.93
2023-05-16T19:52:01.359Z,20.37
2023-05-16T19:54:28.263Z,17.67
2023-05-16T19:56:55.191Z,19.10
2023-05-16T19:59:22.259Z,19.90
2023-05-16T20:01:49.154Z,19.20
2023-05-16T20:04:16.150Z,21.00
2023-05-16T20:06:45.433Z,19.90
2023-05-16T20:09:12.365Z,20.80
2023-05-16T20:11:39.296Z,19.07
2023-05-16T20:14:06.469Z,19.40
2023-05-16T20:16:33.327Z,18.70
2023-05-16T20:19:00.471Z,20.80
2023-05-16T20:21:29.038Z,18.87
2023-05-16T20:23:55.957Z,18.87
2023-05-16T20:26:22.826Z,19.27
2023-05-16T20:28:49.744Z,19.67
2023-05-16T20:31:16.663Z,17.67
2023-05-16T20:33:43.697Z,18.40
2023-05-16T20:36:10.733Z,15.40
2023-05-16T20:38:37.677Z,18.10
2023-05-16T20:41:04.612Z,17.00
2023-05-16T20:43:31.503Z,16.60
2023-05-16T20:45:58.400Z,17.23
2023-05-16T20:48:25.351Z,18.33
2023-05-16T20:50:52.316Z,18.77
2023-05-16T20:53:19.197Z,16.43
2023-05-16T20:55:46.398Z,17.23
2023-05-16T20:58:13.287Z,19.90
2023-05-16T21:00:40.191Z,19.70
2023-05-16T21:03:09.486Z,19.77
2023-05-16T21:05:36.632Z,18.77
2023-05-16T21:08:04.054Z,21.00
2023-05-16T21:10:30.932Z,20.30
2023-05-16T21:12:57.882Z,20.00
2023-05-16T21:15:24.734Z,19.27
2023-05-16T21:17:51.807Z,19.03
2023-05-16T21:20:19.030Z,18.83
2023-05-16T21:22:45.876Z,16.93
2023-05-16T21:25:12.787Z,16.60
2023-05-16T21:27:39.740Z,15.37
2023-05-16T21:30:07.636Z,17.50
2023-05-16T21:32:34.518Z,17.50
2023-05-16T21:35:01.490Z,16.43
2023-05-16T21:37:28.348Z,17.77
2023-05-16T21:39:55.317Z,17.33
2023-05-16T21:42:22.194Z,17.10
2023-05-16T21:44:49.066Z,20.27
2023-05-16T21:47:16.003Z,18.63
2023-05-16T21:49:44.602Z,19.77
2023-05-16T21:52:11.616Z,20.30
2023-05-16T21:54:38.716Z,20.23
2023-05-16T21:57:05.928Z,19.73
2023-05-16T21:59:32.893Z,21.47
2023-05-16T22:01:59.907Z,22.10
2023-05-16T22:04:26.859Z,20.53
2023-05-16T22:06:54.034Z,19.60
2023-05-16T22:09:20.895Z,19.53
2023-05-16T22:11:47.769Z,19.63
2023-05-16T22:14:14.737Z,18.23
2023-05-16T22:16:41.637Z,20.80
2023-05-16T22:19:08.527Z,18.80
2023-05-16T22:21:35.355Z,17.10
2023-05-16T22:24:02.313Z,16.77
2023-05-16T22:26:29.196Z,17.00
2023-05-16T22:28:56.404Z,16.87
2023-05-16T22:31:23.279Z,15.73
2023-05-16T22:33:50.141Z,16.50
2023-05-16T22:36:17.091Z,18.07
2023-05-16T22:38:44.007Z,15.07
2023-05-16T22:41:10.942Z,14.97
2023-05-16T22:43:37.833Z,17.30
2023-05-16T22:46:04.704Z,15.27
2023-05-16T22:48:32.174Z,16.30
2023-05-16T22:50:59.202Z,14.77
2023-05-16T22:53:26.113Z,13.67
2023-05-16T22:55:53.025Z,15.30
2023-05-16T22:58:19.951Z,15.20
2023-05-16T23:00:46.878Z,15.27
2023-05-16T23:03:13.929Z,15.00
2023-05-16T23:05:40.939Z,15.50
2023-05-16T23:08:08.020Z,14.30
2023-05-16T23:10:34.976Z,13.13
2023-05-16T23:13:01.884Z,15.47
2023-05-16T23:15:29.075Z,15.30
2023-05-16T23:17:56.241Z,14.40
2023-05-16T23:20:23.347Z,14.63
2023-05-16T23:22:50.434Z,14.87
2023-05-16T23:25:17.277Z,16.33
2023-05-16T23:27:44.270Z,16.80
2023-05-16T23:30:11.838Z,15.40
2023-05-16T23:32:38.744Z,15.30
2023-05-16T23:35:06.590Z,16.10
2023-05-16T23:37:33.750Z,14.20
2023-05-16T23:40:00.687Z,13.43
2023-05-16T23:42:27.630Z,13.03
2023-05-16T23:44:54.456Z,12.43
2023-05-16T23:47:21.356Z,11.77
2023-05-16T23:49:48.324Z,9.90
2023-05-16T23:52:15.189Z,10.77
2023-05-16T23:54:42.108Z,10.20
2023-05-16T23:57:09.133Z,9.80
2023-05-16T23:59:36.069Z,9.30
